Time;durP1;ratioP1;P1;durP2;ratioP2;P2;SDS_P1;SDS_P2;PMS_P1;PMS_P2;Temp;Humidity;BMP_temperature;BMP_pressure;BME280_temperature;BME280_humidity;BME280_pressure;Samples;Min_cycle;Max_cycle;Signal;HPM_P1;HPM_P2
2022/08/23 00:02:02;;;;;;;9.23;4.70;;;;;;;;;;5007177;28;20041;-49
2022/08/23 00:04:30;;;;;;;9.63;4.25;;;;;;;;;;4990941;28;20071;-51
2022/08/23 00:06:58;;;;;;;10.45;5.35;;;;;;;;;;4989272;28;20118;-45
2022/08/23 00:09:26;;;;;;;10.93;5.30;;;;;;;;;;4995284;28;20940;-47
2022/08/23 00:11:54;;;;;;;10.65;4.68;;;;;;;;;;5002392;28;20041;-48
2022/08/23 00:14:24;;;;;;;9.45;4.97;;;;;;;;;;5000499;28;20466;-47
2022/08/23 00:16:51;;;;;;;13.18;5.35;;;;;;;;;;5003214;28;20033;-50
2022/08/23 00:19:18;;;;;;;10.38;4.85;;;;;;;;;;4995208;28;20042;-47
2022/08/23 00:21:45;;;;;;;11.23;5.27;;;;;;;;;;5005270;28;20045;-51
2022/08/23 00:24:13;;;;;;;10.38;4.70;;;;;;;;;;4971954;28;20471;-48
2022/08/23 00:26:50;;;;;;;10.38;5.07;;;;;;;;;;5000523;28;20097;-49
2022/08/23 00:29:20;;;;;;;12.07;5.03;;;;;;;;;;5003289;28;20096;-51
2022/08/23 00:31:47;;;;;;;9.82;5.05;;;;;;;;;;5005193;28;20111;-50
2022/08/23 00:34:14;;;;;;;11.07;4.90;;;;;;;;;;4996545;28;20565;-48
2022/08/23 00:36:43;;;;;;;10.25;4.60;;;;;;;;;;4985157;28;20041;-49
2022/08/23 00:39:10;;;;;;;9.55;4.55;;;;;;;;;;5004696;28;20116;-47
2022/08/23 00:41:38;;;;;;;11.00;5.43;;;;;;;;;;5009097;28;20045;-49
2022/08/23 00:49:35;;;;;;;10.65;5.18;;;;;;;;;;4995753;28;20103;-51
2022/08/23 00:52:06;;;;;;;11.00;5.47;;;;;;;;;;4997004;28;20088;-49
2022/08/23 00:54:33;;;;;;;11.35;4.75;;;;;;;;;;5001515;28;20132;-47
2022/08/23 00:57:02;;;;;;;10.57;4.90;;;;;;;;;;4995458;28;20034;-47
2022/08/23 00:59:29;;;;;;;11.70;4.80;;;;;;;;;;5003169;28;20041;-45
2022/08/23 01:01:56;;;;;;;11.93;5.22;;;;;;;;;;5010246;28;20072;-47
2022/08/23 01:04:23;;;;;;;11.05;5.30;;;;;;;;;;4999754;28;20048;-50
2022/08/23 01:06:51;;;;;;;9.70;4.70;;;;;;;;;;5000471;28;20119;-46
2022/08/23 01:09:20;;;;;;;10.35;4.75;;;;;;;;;;4996674;28;20041;-48
2022/08/23 01:11:49;;;;;;;11.73;4.50;;;;;;;;;;4991021;28;20497;-50
2022/08/23 01:14:18;;;;;;;9.90;4.70;;;;;;;;;;5003239;28;20459;-50
2022/08/23 01:16:47;;;;;;;10.57;4.88;;;;;;;;;;4992753;28;20041;-48
2022/08/23 01:19:17;;;;;;;10.77;4.47;;;;;;;;;;4999659;28;20052;-50
2022/08/23 01:21:49;;;;;;;9.85;4.72;;;;;;;;;;5001109;28;20366;-51
2022/08/23 01:24:17;;;;;;;11.13;4.60;;;;;;;;;;5001311;28;20049;-47
2022/08/23 01:26:44;;;;;;;9.88;4.90;;;;;;;;;;4991747;28;20045;-47
2022/08/23 01:29:10;;;;;;;10.68;4.80;;;;;;;;;;4978808;28;20052;-47
2022/08/23 01:31:37;;;;;;;10.63;4.45;;;;;;;;;;5003475;28;20041;-49
2022/08/23 01:34:05;;;;;;;10.43;4.47;;;;;;;;;;5000331;28;20037;-48
2022/08/23 01:36:35;;;;;;;10.80;4.37;;;;;;;;;;5003435;28;20136;-47
2022/08/23 01:39:02;;;;;;;10.52;4.55;;;;;;;;;;4991298;28;20616;-46
2022/08/23 01:41:30;;;;;;;8.80;4.45;;;;;;;;;;5002600;28;20040;-49
2022/08/23 01:43:56;;;;;;;9.38;4.30;;;;;;;;;;4996130;28;20037;-50
2022/08/23 01:46:24;;;;;;;8.50;3.95;;;;;;;;;;4979897;28;20037;-50
2022/08/23 01:48:53;;;;;;;11.90;4.37;;;;;;;;;;4991770;28;20076;-46
2022/08/23 01:51:20;;;;;;;11.88;4.20;;;;;;;;;;4985710;28;20151;-47
2022/08/23 01:53:47;;;;;;;9.40;4.40;;;;;;;;;;5000489;28;20042;-48
2022/08/23 01:56:13;;;;;;;11.20;4.47;;;;;;;;;;4998903;28;20568;-48
2022/08/23 01:58:41;;;;;;;10.23;4.38;;;;;;;;;;5004003;28;20041;-49
2022/08/23 02:01:08;;;;;;;9.80;4.07;;;;;;;;;;4995951;28;20510;-47
2022/08/23 02:03:36;;;;;;;9.80;4.00;;;;;;;;;;5004450;28;20499;-47
2022/08/23 02:06:02;;;;;;;8.65;3.80;;;;;;;;;;4995139;28;20045;-49
2022/08/23 02:11:14;;;;;;;9.65;4.20;;;;;;;;;;4989215;28;20503;-48
2022/08/23 02:13:43;;;;;;;9.87;4.40;;;;;;;;;;4997768;28;20119;-48
2022/08/23 02:16:10;;;;;;;10.98;4.65;;;;;;;;;;5006618;28;20108;-48
2022/08/23 02:18:36;;;;;;;11.93;4.93;;;;;;;;;;4996839;28;20033;-48
2022/08/23 02:21:03;;;;;;;11.52;4.78;;;;;;;;;;5007069;28;20041;-47
2022/08/23 02:23:30;;;;;;;12.10;4.68;;;;;;;;;;4984320;28;20135;-48
2022/08/23 02:25:56;;;;;;;10.97;5.37;;;;;;;;;;4998583;28;20042;-48
2022/08/23 02:28:24;;;;;;;10.38;4.85;;;;;;;;;;4999604;28;20371;-48
2022/08/23 02:30:52;;;;;;;10.90;4.50;;;;;;;;;;5000372;28;20033;-46
2022/08/23 02:33:19;;;;;;;9.43;4.45;;;;;;;;;;4990617;28;21003;-49
2022/08/23 02:35:45;;;;;;;10.10;4.00;;;;;;;;;;4992370;28;20040;-47
2022/08/23 02:38:12;;;;;;;9.00;4.30;;;;;;;;;;5000920;28;20562;-47
2022/08/23 02:40:39;;;;;;;9.77;3.55;;;;;;;;;;4993617;28;20674;-50
2022/08/23 02:43:06;;;;;;;8.82;3.65;;;;;;;;;;4997851;28;20074;-46
2022/08/23 02:45:33;;;;;;;8.60;3.42;;;;;;;;;;4997158;28;20042;-47
2022/08/23 02:48:01;;;;;;;8.80;3.38;;;;;;;;;;4988230;28;20041;-50
2022/08/23 02:50:27;;;;;;;7.77;3.10;;;;;;;;;;4987357;28;20537;-47
2022/08/23 02:52:54;;;;;;;7.57;3.15;;;;;;;;;;5004593;28;20086;-48
2022/08/23 02:55:21;;;;;;;6.65;2.50;;;;;;;;;;4996003;28;20037;-47
2022/08/23 02:57:49;;;;;;;4.90;1.85;;;;;;;;;;4994556;28;20447;-48
2022/08/23 03:00:17;;;;;;;5.28;1.70;;;;;;;;;;5011542;28;20049;-47
2022/08/23 03:02:44;;;;;;;4.60;1.50;;;;;;;;;;4997852;28;20341;-50
2022/08/23 03:05:12;;;;;;;4.38;1.13;;;;;;;;;;5008392;28;20038;-49
2022/08/23 03:07:39;;;;;;;4.60;1.30;;;;;;;;;;4999518;28;20049;-46
2022/08/23 03:10:06;;;;;;;5.03;1.23;;;;;;;;;;4998687;28;20037;-47
2022/08/23 03:12:33;;;;;;;4.55;0.95;;;;;;;;;;4992248;28;20084;-47
2022/08/23 03:15:00;;;;;;;4.53;1.20;;;;;;;;;;4969909;28;20037;-47
2022/08/23 03:17:26;;;;;;;4.18;1.17;;;;;;;;;;5002285;28;20041;-49
2022/08/23 03:19:53;;;;;;;3.47;0.80;;;;;;;;;;4988190;28;20037;-46
2022/08/23 03:22:21;;;;;;;3.80;1.00;;;;;;;;;;4997512;28;20111;-46
2022/08/23 03:24:48;;;;;;;3.78;1.00;;;;;;;;;;5006382;28;20068;-49
2022/08/23 03:27:14;;;;;;;4.30;0.70;;;;;;;;;;5001556;28;20050;-45
2022/08/23 03:29:41;;;;;;;3.50;0.60;;;;;;;;;;4983886;28;20033;-51
2022/08/23 03:32:08;;;;;;;3.50;0.77;;;;;;;;;;4999121;28;20752;-47
2022/08/23 03:34:34;;;;;;;3.55;0.65;;;;;;;;;;5010094;28;20828;-46
2022/08/23 03:37:01;;;;;;;5.15;1.58;;;;;;;;;;4998681;28;20974;-48
2022/08/23 03:39:29;;;;;;;4.90;1.70;;;;;;;;;;5002770;28;20045;-47
2022/08/23 03:41:55;;;;;;;4.70;1.90;;;;;;;;;;4998083;28;20064;-50
2022/08/23 03:44:22;;;;;;;5.47;2.17;;;;;;;;;;5001828;28;20069;-48
2022/08/23 03:46:49;;;;;;;7.45;2.03;;;;;;;;;;4988224;28;20041;-50
2022/08/23 03:49:15;;;;;;;5.05;1.70;;;;;;;;;;4998857;28;20049;-47
2022/08/23 03:51:42;;;;;;;5.50;1.67;;;;;;;;;;4936264;28;20045;-48
2022/08/23 03:54:08;;;;;;;6.93;2.35;;;;;;;;;;4988869;28;20641;-48
2022/08/23 03:56:37;;;;;;;6.43;2.60;;;;;;;;;;5000097;28;20071;-51
2022/08/23 03:59:05;;;;;;;8.75;2.90;;;;;;;;;;4998113;28;21344;-45
2022/08/23 04:01:32;;;;;;;8.07;3.22;;;;;;;;;;4992050;28;20707;-49
2022/08/23 04:03:59;;;;;;;18.23;4.07;;;;;;;;;;4995958;28;20649;-48
2022/08/23 04:06:25;;;;;;;7.97;3.28;;;;;;;;;;5003763;28;20121;-49
2022/08/23 04:08:53;;;;;;;8.05;3.28;;;;;;;;;;4998251;28;20033;-50
2022/08/23 04:11:20;;;;;;;7.18;2.75;;;;;;;;;;5008057;28;20041;-50
2022/08/23 04:13:48;;;;;;;6.07;2.28;;;;;;;;;;4999761;28;20526;-51
2022/08/23 04:16:14;;;;;;;6.60;2.47;;;;;;;;;;5002894;28;20049;-48
2022/08/23 04:18:41;;;;;;;8.98;2.55;;;;;;;;;;5001381;28;20661;-49
2022/08/23 04:21:09;;;;;;;8.52;2.30;;;;;;;;;;5003852;28;20092;-48
2022/08/23 04:23:36;;;;;;;6.45;2.60;;;;;;;;;;4993710;28;20128;-48
2022/08/23 04:26:04;;;;;;;6.57;2.55;;;;;;;;;;4991331;28;21134;-46
2022/08/23 04:28:31;;;;;;;6.87;2.93;;;;;;;;;;4980074;28;20053;-47
2022/08/23 04:30:59;;;;;;;6.55;2.50;;;;;;;;;;4990238;28;20045;-49
2022/08/23 04:33:25;;;;;;;6.40;2.40;;;;;;;;;;4986405;28;20038;-51
2022/08/23 04:35:52;;;;;;;6.47;2.30;;;;;;;;;;4986194;28;20056;-49
2022/08/23 04:38:19;;;;;;;10.30;2.40;;;;;;;;;;4988833;28;20616;-50
2022/08/23 04:43:29;;;;;;;5.68;1.88;;;;;;;;;;4973589;28;20284;-48
2022/08/23 04:45:56;;;;;;;6.03;2.13;;;;;;;;;;4990322;28;20134;-49
2022/08/23 04:48:24;;;;;;;5.53;1.77;;;;;;;;;;4984084;28;20482;-51
2022/08/23 04:50:50;;;;;;;5.82;2.00;;;;;;;;;;4989429;28;20503;-50
2022/08/23 04:53:17;;;;;;;5.70;2.30;;;;;;;;;;4975646;28;20559;-53
2022/08/23 04:55:44;;;;;;;5.40;2.38;;;;;;;;;;4982393;28;20045;-47
2022/08/23 04:58:10;;;;;;;5.45;2.38;;;;;;;;;;4980299;28;20038;-50
2022/08/23 05:00:37;;;;;;;5.40;2.05;;;;;;;;;;4986273;28;20046;-47
2022/08/23 05:03:04;;;;;;;5.82;2.00;;;;;;;;;;4982719;28;20065;-49
2022/08/23 05:05:32;;;;;;;5.47;1.60;;;;;;;;;;4989726;28;20045;-47
2022/08/23 05:07:58;;;;;;;5.13;1.80;;;;;;;;;;4984294;28;20030;-48
2022/08/23 05:10:25;;;;;;;6.25;2.15;;;;;;;;;;4970584;28;20045;-52
2022/08/23 05:12:51;;;;;;;5.28;1.55;;;;;;;;;;4977727;28;20069;-47
2022/08/23 05:15:18;;;;;;;4.50;1.50;;;;;;;;;;4993195;28;20436;-48
2022/08/23 05:17:44;;;;;;;5.30;1.70;;;;;;;;;;4981011;28;20038;-47
2022/08/23 05:20:11;;;;;;;4.82;1.55;;;;;;;;;;4967637;28;20056;-49
2022/08/23 05:22:40;;;;;;;5.10;1.70;;;;;;;;;;4981867;28;20140;-46
2022/08/23 05:25:07;;;;;;;5.43;1.80;;;;;;;;;;5006438;28;20499;-48
2022/08/23 05:27:34;;;;;;;4.88;1.83;;;;;;;;;;5000505;28;20042;-50
2022/08/23 05:30:01;;;;;;;5.33;1.37;;;;;;;;;;4992982;28;20087;-49
2022/08/23 05:32:28;;;;;;;5.68;1.50;;;;;;;;;;5004116;28;20048;-50
2022/08/23 05:34:54;;;;;;;10.27;1.92;;;;;;;;;;5006513;28;20411;-49
2022/08/23 05:37:21;;;;;;;4.75;1.48;;;;;;;;;;5008698;28;20068;-50
2022/08/23 05:39:49;;;;;;;6.60;1.80;;;;;;;;;;5005181;28;20452;-46
2022/08/23 05:42:16;;;;;;;5.37;1.50;;;;;;;;;;5001332;28;20392;-49
2022/08/23 05:44:43;;;;;;;4.93;1.30;;;;;;;;;;5006320;28;20041;-50
2022/08/23 05:47:10;;;;;;;6.30;1.90;;;;;;;;;;4991237;28;20049;-46
2022/08/23 05:49:37;;;;;;;4.25;1.35;;;;;;;;;;4993174;28;20413;-51
2022/08/23 05:52:04;;;;;;;4.72;1.67;;;;;;;;;;4993465;28;20088;-48
2022/08/23 05:54:31;;;;;;;7.20;1.83;;;;;;;;;;5001650;28;20030;-49
2022/08/23 05:56:59;;;;;;;4.85;1.90;;;;;;;;;;5009471;28;20049;-50
2022/08/23 05:59:25;;;;;;;6.50;1.75;;;;;;;;;;4998979;28;20058;-47
2022/08/23 06:01:52;;;;;;;5.35;1.95;;;;;;;;;;5007037;28;20041;-45
2022/08/23 06:04:18;;;;;;;5.55;1.65;;;;;;;;;;5002768;28;20116;-48
2022/08/23 06:06:45;;;;;;;5.80;1.73;;;;;;;;;;5006016;28;20045;-48
2022/08/23 06:09:14;;;;;;;6.63;2.08;;;;;;;;;;4997316;28;20096;-48
2022/08/23 06:11:40;;;;;;;7.40;2.28;;;;;;;;;;5009119;28;20069;-46
2022/08/23 06:14:08;;;;;;;6.70;2.70;;;;;;;;;;5003064;28;20045;-45
2022/08/23 06:16:36;;;;;;;5.75;1.83;;;;;;;;;;5004505;28;20041;-48
2022/08/23 06:19:04;;;;;;;6.33;2.10;;;;;;;;;;4992304;28;20045;-49
2022/08/23 06:21:31;;;;;;;6.30;2.17;;;;;;;;;;4999879;28;20102;-49
2022/08/23 06:23:58;;;;;;;7.65;1.90;;;;;;;;;;4986736;28;20089;-48
2022/08/23 06:26:26;;;;;;;7.22;2.40;;;;;;;;;;4955805;28;20039;-49
2022/08/23 06:28:53;;;;;;;5.93;2.00;;;;;;;;;;4976543;28;20037;-48
2022/08/23 06:34:03;;;;;;;7.00;2.47;;;;;;;;;;4986392;28;20074;-52
2022/08/23 06:36:29;;;;;;;6.80;2.47;;;;;;;;;;4981779;28;20190;-48
2022/08/23 06:38:56;;;;;;;6.65;2.10;;;;;;;;;;4977945;28;20424;-49
2022/08/23 06:41:22;;;;;;;8.13;2.75;;;;;;;;;;4983056;28;20081;-50
2022/08/23 06:43:50;;;;;;;6.73;2.30;;;;;;;;;;4993371;28;20815;-47
2022/08/23 06:46:17;;;;;;;5.43;2.47;;;;;;;;;;4985851;28;20570;-50
2022/08/23 06:48:46;;;;;;;5.88;2.00;;;;;;;;;;4994290;28;20136;-49
2022/08/23 06:51:13;;;;;;;5.40;1.90;;;;;;;;;;4986675;28;20342;-51
2022/08/23 06:53:40;;;;;;;5.60;2.10;;;;;;;;;;4992067;28;20519;-46
2022/08/23 06:56:07;;;;;;;5.27;2.13;;;;;;;;;;4986848;28;20030;-49
2022/08/23 06:58:33;;;;;;;5.10;1.85;;;;;;;;;;4991775;28;20137;-51
2022/08/23 07:01:08;;;;;;;6.97;2.40;;;;;;;;;;4984179;28;20053;-48
2022/08/23 07:03:35;;;;;;;6.70;2.22;;;;;;;;;;4983337;28;20456;-49
2022/08/23 07:06:03;;;;;;;5.95;2.00;;;;;;;;;;4984533;28;20057;-47
2022/08/23 07:08:29;;;;;;;6.23;2.23;;;;;;;;;;4976053;28;20070;-50
2022/08/23 07:10:56;;;;;;;6.68;1.90;;;;;;;;;;4986785;28;20053;-50
2022/08/23 07:13:22;;;;;;;4.35;1.63;;;;;;;;;;4985007;28;20053;-49
2022/08/23 07:15:49;;;;;;;6.07;2.13;;;;;;;;;;4979647;28;20593;-49
2022/08/23 07:18:16;;;;;;;7.30;2.45;;;;;;;;;;4991843;28;20046;-49
2022/08/23 07:20:42;;;;;;;6.53;1.80;;;;;;;;;;4970494;28;20050;-51
2022/08/23 07:23:10;;;;;;;5.85;2.03;;;;;;;;;;4976517;28;20064;-50
2022/08/23 07:25:39;;;;;;;4.95;1.77;;;;;;;;;;5011560;28;20034;-47
2022/08/23 07:28:05;;;;;;;6.53;2.13;;;;;;;;;;5006809;28;20690;-48
2022/08/23 07:30:32;;;;;;;5.90;1.98;;;;;;;;;;5010801;28;20042;-49
2022/08/23 07:32:59;;;;;;;6.83;2.23;;;;;;;;;;4984609;28;20053;-51
2022/08/23 07:35:25;;;;;;;6.97;2.00;;;;;;;;;;5006824;28;20041;-52
2022/08/23 07:37:55;;;;;;;5.53;2.28;;;;;;;;;;5012548;28;20048;-51
2022/08/23 07:40:26;;;;;;;6.05;1.98;;;;;;;;;;5004749;28;20470;-48
2022/08/23 07:42:52;;;;;;;5.55;1.70;;;;;;;;;;4999719;28;20042;-48
2022/08/23 07:45:19;;;;;;;5.83;1.63;;;;;;;;;;5003315;28;20045;-49
2022/08/23 07:47:45;;;;;;;5.13;1.67;;;;;;;;;;5002832;28;20056;-49
2022/08/23 07:50:12;;;;;;;6.85;1.90;;;;;;;;;;5005967;28;20041;-51
2022/08/23 07:52:38;;;;;;;5.60;1.60;;;;;;;;;;5000905;28;20503;-48
2022/08/23 07:55:06;;;;;;;4.47;1.52;;;;;;;;;;5012489;28;20044;-51
2022/08/23 07:57:34;;;;;;;5.43;1.43;;;;;;;;;;4984317;28;20038;-51
2022/08/23 08:00:00;;;;;;;4.35;1.50;;;;;;;;;;4999562;28;20034;-50
2022/08/23 08:02:27;;;;;;;5.53;1.70;;;;;;;;;;5011652;28;20045;-50
2022/08/23 08:04:53;;;;;;;7.00;1.85;;;;;;;;;;4993196;28;20038;-50
2022/08/23 08:07:20;;;;;;;4.30;1.58;;;;;;;;;;5013074;28;20104;-52
2022/08/23 08:09:46;;;;;;;5.63;1.83;;;;;;;;;;5004776;28;20112;-53
2022/08/23 08:12:13;;;;;;;6.15;1.35;;;;;;;;;;4314183;28;10000529;-50
2022/08/23 08:14:41;;;;;;;9.45;1.58;;;;;;;;;;5003608;28;20116;-52
2022/08/23 08:17:09;;;;;;;5.18;1.60;;;;;;;;;;4998522;28;20045;-50
2022/08/23 08:19:36;;;;;;;4.47;1.35;;;;;;;;;;4990729;28;20160;-51
2022/08/23 08:22:02;;;;;;;4.05;1.38;;;;;;;;;;5005407;28;20208;-53
2022/08/23 08:24:29;;;;;;;5.47;1.40;;;;;;;;;;5000442;28;20053;-51
2022/08/23 08:26:55;;;;;;;4.22;1.33;;;;;;;;;;4652062;28;10000140;-53
2022/08/23 08:29:21;;;;;;;3.83;1.30;;;;;;;;;;4925747;28;20052;-50
2022/08/23 08:31:51;;;;;;;4.23;1.73;;;;;;;;;;4972267;28;20111;-46
2022/08/23 08:34:18;;;;;;;4.10;1.30;;;;;;;;;;4973207;28;20269;-50
2022/08/23 08:36:45;;;;;;;4.82;1.30;;;;;;;;;;4962046;28;20045;-52
2022/08/23 08:39:15;;;;;;;4.95;1.48;;;;;;;;;;4987840;28;20050;-49
2022/08/23 08:41:48;;;;;;;4.75;1.13;;;;;;;;;;4969122;28;20057;-49
2022/08/23 08:44:21;;;;;;;3.97;1.43;;;;;;;;;;4987053;28;20057;-49
2022/08/23 08:46:49;;;;;;;5.03;1.35;;;;;;;;;;4975278;28;20049;-48
2022/08/23 08:49:31;;;;;;;3.45;1.20;;;;;;;;;;4985927;28;20200;-52
2022/08/23 08:52:01;;;;;;;4.38;1.67;;;;;;;;;;4990311;28;21500;-46
2022/08/23 08:54:29;;;;;;;6.40;1.65;;;;;;;;;;4972508;28;20213;-47
2022/08/23 08:57:01;;;;;;;3.57;1.50;;;;;;;;;;4987429;28;20387;-48
2022/08/23 08:59:30;;;;;;;4.53;1.20;;;;;;;;;;4975749;28;20069;-49
2022/08/23 09:01:58;;;;;;;3.67;1.45;;;;;;;;;;4994135;28;20065;-49
2022/08/23 09:04:26;;;;;;;4.75;1.33;;;;;;;;;;4978315;28;20064;-47
2022/08/23 09:07:09;;;;;;;3.53;1.10;;;;;;;;;;4981452;28;20041;-46
2022/08/23 09:09:48;;;;;;;4.97;0.97;;;;;;;;;;4989218;28;20050;-47
2022/08/23 09:12:20;;;;;;;3.55;1.17;;;;;;;;;;4980885;28;20046;-49
2022/08/23 09:14:56;;;;;;;4.15;1.17;;;;;;;;;;4972454;28;20061;-49
2022/08/23 09:17:27;;;;;;;5.75;1.33;;;;;;;;;;4961292;28;20038;-49
2022/08/23 09:19:59;;;;;;;4.40;1.20;;;;;;;;;;4992424;28;20422;-50
2022/08/23 09:22:30;;;;;;;5.33;1.60;;;;;;;;;;4991192;28;20132;-50
2022/08/23 09:24:58;;;;;;;4.50;1.90;;;;;;;;;;5160885;23;21040;-51
2022/08/23 09:27:25;;;;;;;6.70;1.77;;;;;;;;;;4947899;28;20040;-50
2022/08/23 09:29:54;;;;;;;4.32;1.27;;;;;;;;;;5013431;28;20175;-57
2022/08/23 09:32:29;;;;;;;6.32;1.50;;;;;;;;;;5026868;28;20036;-65
2022/08/23 09:35:07;;;;;;;4.37;1.43;;;;;;;;;;4907593;28;20040;-64
2022/08/23 09:37:46;;;;;;;4.38;1.40;;;;;;;;;;5008815;28;20716;-43
2022/08/23 09:40:15;;;;;;;4.75;1.52;;;;;;;;;;5008754;28;20425;-42
2022/08/23 09:42:42;;;;;;;4.90;1.40;;;;;;;;;;5024647;28;20050;-43
2022/08/23 09:45:24;;;;;;;4.40;1.73;;;;;;;;;;5036845;28;20055;-43
2022/08/23 09:47:51;;;;;;;3.47;1.07;;;;;;;;;;5032258;28;20700;-43
2022/08/23 09:50:24;;;;;;;4.20;1.58;;;;;;;;;;5058373;28;20044;-43
2022/08/23 09:52:54;;;;;;;4.35;1.10;;;;;;;;;;5020401;28;20037;-47
2022/08/23 09:55:32;;;;;;;5.35;1.40;;;;;;;;;;5037788;28;20142;-46
2022/08/23 09:58:00;;;;;;;3.58;1.13;;;;;;;;;;5048161;28;20044;-44
2022/08/23 10:00:27;;;;;;;4.70;1.10;;;;;;;;;;5035383;28;20036;-43
2022/08/23 10:02:56;;;;;;;5.05;1.33;;;;;;;;;;5036226;28;20116;-42
2022/08/23 10:05:35;;;;;;;4.90;1.60;;;;;;;;;;5040221;28;20775;-45
2022/08/23 10:08:03;;;;;;;4.10;1.50;;;;;;;;;;5044587;28;20106;-44
2022/08/23 10:10:32;;;;;;;4.65;1.40;;;;;;;;;;5045300;28;20045;-44
2022/08/23 10:12:59;;;;;;;5.37;1.40;;;;;;;;;;5044406;28;20251;-42
2022/08/23 10:15:34;;;;;;;5.68;1.90;;;;;;;;;;5056784;28;20048;-45
2022/08/23 10:18:05;;;;;;;4.75;1.38;;;;;;;;;;5030373;28;20044;-43
2022/08/23 10:20:35;;;;;;;4.00;1.40;;;;;;;;;;5052331;28;20041;-46
2022/08/23 10:23:15;;;;;;;4.68;1.42;;;;;;;;;;5037849;28;20039;-46
2022/08/23 10:25:42;;;;;;;5.90;1.23;;;;;;;;;;5025707;28;20053;-43
2022/08/23 10:31:02;;;;;;;4.75;1.30;;;;;;;;;;5026072;28;20968;-43
2022/08/23 10:33:36;;;;;;;4.40;1.30;;;;;;;;;;5029446;28;20045;-45
2022/08/23 10:36:07;;;;;;;4.28;1.67;;;;;;;;;;5000575;28;20692;-44
2022/08/23 10:38:40;;;;;;;6.60;1.77;;;;;;;;;;5024093;28;20103;-42
2022/08/23 10:41:16;;;;;;;6.50;1.60;;;;;;;;;;5013971;28;20456;-42
2022/08/23 10:43:47;;;;;;;3.80;1.40;;;;;;;;;;5004450;28;20421;-45
2022/08/23 10:46:13;;;;;;;4.33;1.30;;;;;;;;;;5033940;28;20064;-44
2022/08/23 10:48:47;;;;;;;3.83;1.00;;;;;;;;;;5015626;28;20053;-45
2022/08/23 10:51:18;;;;;;;5.45;1.33;;;;;;;;;;5007554;28;20048;-45
2022/08/23 10:53:47;;;;;;;3.90;1.20;;;;;;;;;;5017647;28;20145;-44
2022/08/23 10:56:18;;;;;;;5.22;1.80;;;;;;;;;;5022500;28;20598;-44
2022/08/23 10:58:47;;;;;;;4.93;1.60;;;;;;;;;;5014556;28;20158;-44
2022/08/23 11:01:16;;;;;;;3.67;0.90;;;;;;;;;;5030017;28;20037;-46
2022/08/23 11:03:43;;;;;;;4.45;1.50;;;;;;;;;;5019124;28;20056;-44
2022/08/23 11:06:25;;;;;;;6.72;1.35;;;;;;;;;;5031856;28;20049;-47
2022/08/23 11:08:58;;;;;;;3.92;1.23;;;;;;;;;;5004410;28;20033;-46
2022/08/23 11:11:38;;;;;;;3.50;0.90;;;;;;;;;;5008575;28;20048;-45
2022/08/23 11:14:07;;;;;;;4.05;1.40;;;;;;;;;;5009922;28;20503;-43
2022/08/23 11:16:34;;;;;;;3.85;1.20;;;;;;;;;;5017004;28;20056;-45
2022/08/23 11:19:01;;;;;;;3.80;1.10;;;;;;;;;;4993759;28;20289;-43
2022/08/23 11:21:46;;;;;;;4.03;1.13;;;;;;;;;;5015077;28;20091;-43
2022/08/23 11:24:29;;;;;;;3.97;0.80;;;;;;;;;;5006986;28;20045;-42
2022/08/23 11:27:05;;;;;;;3.88;1.10;;;;;;;;;;5005154;28;20110;-47
2022/08/23 11:29:36;;;;;;;3.53;0.75;;;;;;;;;;5000877;28;20112;-46
2022/08/23 11:32:06;;;;;;;3.60;0.90;;;;;;;;;;5004238;28;20048;-42
2022/08/23 11:34:34;;;;;;;4.88;1.40;;;;;;;;;;5002688;28;20048;-45
2022/08/23 11:37:20;;;;;;;3.77;1.30;;;;;;;;;;5009081;28;20492;-43
2022/08/23 11:40:11;;;;;;;3.88;1.20;;;;;;;;;;5006719;28;20059;-45
2022/08/23 11:42:51;;;;;;;3.25;1.10;;;;;;;;;;4985651;28;20068;-43
2022/08/23 11:45:22;;;;;;;3.40;1.10;;;;;;;;;;5002126;28;20310;-44
2022/08/23 11:47:53;;;;;;;3.42;1.13;;;;;;;;;;5006468;28;20103;-43
2022/08/23 11:50:24;;;;;;;3.60;1.03;;;;;;;;;;4998025;28;20465;-42
2022/08/23 11:53:05;;;;;;;3.83;1.08;;;;;;;;;;5017061;28;20052;-42
2022/08/23 11:55:46;;;;;;;3.50;0.95;;;;;;;;;;5010994;28;20029;-43
2022/08/23 11:58:21;;;;;;;3.05;0.80;;;;;;;;;;4994036;28;20808;-43
2022/08/23 12:00:52;;;;;;;3.63;1.00;;;;;;;;;;5013679;28;20953;-43
2022/08/23 12:03:23;;;;;;;2.60;0.60;;;;;;;;;;5006370;28;20040;-43
2022/08/23 12:06:24;;;;;;;3.42;0.95;;;;;;;;;;5008408;28;20136;-42
2022/08/23 12:08:54;;;;;;;2.85;0.95;;;;;;;;;;4997640;28;20041;-42
2022/08/23 12:11:22;;;;;;;3.10;0.85;;;;;;;;;;5005709;28;20490;-42
2022/08/23 12:13:58;;;;;;;3.20;0.70;;;;;;;;;;5014760;28;20297;-43
2022/08/23 12:16:27;;;;;;;4.20;0.70;;;;;;;;;;5007497;28;20068;-43
2022/08/23 12:18:56;;;;;;;3.83;0.60;;;;;;;;;;4996476;28;20083;-45
2022/08/23 12:21:24;;;;;;;2.70;0.68;;;;;;;;;;5006411;28;20041;-45
2022/08/23 12:23:52;;;;;;;2.20;0.40;;;;;;;;;;5004091;28;20111;-43
2022/08/23 12:26:24;;;;;;;2.83;0.60;;;;;;;;;;4641193;28;9999836;-44
2022/08/23 12:28:52;;;;;;;2.50;0.60;;;;;;;;;;4988960;28;20498;-43
2022/08/23 12:31:24;;;;;;;2.50;0.55;;;;;;;;;;5011063;28;20053;-43
2022/08/23 12:33:59;;;;;;;3.00;0.45;;;;;;;;;;5001135;28;20545;-43
2022/08/23 12:36:31;;;;;;;2.40;0.60;;;;;;;;;;5021744;28;20049;-45
2022/08/23 12:39:00;;;;;;;2.50;0.50;;;;;;;;;;4988634;28;20068;-42
2022/08/23 12:41:28;;;;;;;2.33;0.60;;;;;;;;;;5012194;28;21350;-44
2022/08/23 12:43:56;;;;;;;2.60;0.70;;;;;;;;;;4999152;28;20052;-45
2022/08/23 12:46:31;;;;;;;2.63;0.50;;;;;;;;;;5007748;28;20450;-44
2022/08/23 12:48:58;;;;;;;2.85;0.50;;;;;;;;;;4989869;28;20103;-44
2022/08/23 12:51:25;;;;;;;2.42;0.55;;;;;;;;;;5006123;28;20052;-45
2022/08/23 12:53:52;;;;;;;2.73;0.60;;;;;;;;;;5006797;28;20041;-43
2022/08/23 12:56:21;;;;;;;2.47;0.60;;;;;;;;;;5012060;28;20118;-42
2022/08/23 12:58:50;;;;;;;2.85;0.50;;;;;;;;;;4980208;28;20053;-44
2022/08/23 13:01:19;;;;;;;2.88;0.60;;;;;;;;;;5007738;28;20123;-43
2022/08/23 13:03:50;;;;;;;2.95;0.90;;;;;;;;;;4998193;28;20041;-43
2022/08/23 13:06:20;;;;;;;3.43;0.90;;;;;;;;;;5000822;28;20057;-44
2022/08/23 13:08:49;;;;;;;2.93;0.53;;;;;;;;;;4638747;28;10000166;-44
2022/08/23 13:11:18;;;;;;;2.65;0.63;;;;;;;;;;4998178;28;20053;-43
2022/08/23 13:13:45;;;;;;;2.33;0.60;;;;;;;;;;5001336;28;20136;-42
2022/08/23 13:16:26;;;;;;;2.60;0.50;;;;;;;;;;5012005;28;20053;-43
2022/08/23 13:19:14;;;;;;;2.88;0.63;;;;;;;;;;4987621;28;20781;-43
2022/08/23 13:21:41;;;;;;;2.47;0.50;;;;;;;;;;5001384;28;21382;-43
2022/08/23 13:24:28;;;;;;;3.00;0.70;;;;;;;;;;5012713;28;21092;-47
2022/08/23 13:27:10;;;;;;;2.88;0.77;;;;;;;;;;4987744;28;20060;-43
2022/08/23 13:29:47;;;;;;;2.60;0.80;;;;;;;;;;4979205;28;20587;-43
2022/08/23 13:32:25;;;;;;;2.78;0.68;;;;;;;;;;5009328;28;20045;-44
2022/08/23 13:34:55;;;;;;;3.23;0.80;;;;;;;;;;4998885;28;20033;-44
2022/08/23 13:37:25;;;;;;;2.75;0.65;;;;;;;;;;5000714;28;20710;-43
2022/08/23 13:39:54;;;;;;;2.67;0.70;;;;;;;;;;5005629;28;20510;-42
2022/08/23 13:42:31;;;;;;;3.10;0.65;;;;;;;;;;4996325;28;20048;-43
2022/08/23 13:44:58;;;;;;;2.92;0.88;;;;;;;;;;5013531;28;20077;-43
2022/08/23 13:47:26;;;;;;;2.60;0.70;;;;;;;;;;5003930;28;20423;-42
2022/08/23 13:49:54;;;;;;;3.20;0.82;;;;;;;;;;4998746;28;20549;-43
2022/08/23 13:52:20;;;;;;;3.55;0.80;;;;;;;;;;4987122;28;20030;-43
2022/08/23 13:54:48;;;;;;;2.90;0.60;;;;;;;;;;5010306;28;20526;-42
2022/08/23 13:57:16;;;;;;;2.50;0.73;;;;;;;;;;4999234;28;20047;-44
2022/08/23 13:59:48;;;;;;;2.60;0.70;;;;;;;;;;4983325;28;20041;-42
2022/08/23 14:02:16;;;;;;;2.55;0.60;;;;;;;;;;5005811;28;20064;-47
2022/08/23 14:04:44;;;;;;;3.10;0.90;;;;;;;;;;5002684;28;20353;-44
2022/08/23 14:07:12;;;;;;;4.05;0.90;;;;;;;;;;5003484;28;20049;-45
2022/08/23 14:09:39;;;;;;;2.70;0.65;;;;;;;;;;5014935;28;20041;-45
2022/08/23 14:12:07;;;;;;;3.33;0.93;;;;;;;;;;5026475;28;20597;-43
2022/08/23 14:14:35;;;;;;;3.00;0.63;;;;;;;;;;4991752;28;20045;-45
2022/08/23 14:17:02;;;;;;;2.80;0.73;;;;;;;;;;5012731;28;20047;-42
2022/08/23 14:19:29;;;;;;;2.83;0.75;;;;;;;;;;4988319;28;20653;-43
2022/08/23 14:21:56;;;;;;;3.00;0.80;;;;;;;;;;5012062;28;20479;-43
2022/08/23 14:24:24;;;;;;;3.10;1.03;;;;;;;;;;5006006;28;20029;-44
2022/08/23 14:26:51;;;;;;;4.65;0.80;;;;;;;;;;5033064;28;20616;-44
2022/08/23 14:29:18;;;;;;;3.50;0.80;;;;;;;;;;5042938;28;20128;-43
2022/08/23 14:31:45;;;;;;;2.88;0.60;;;;;;;;;;5033967;28;20032;-42
2022/08/23 14:34:11;;;;;;;3.05;0.90;;;;;;;;;;5017484;28;20203;-42
2022/08/23 14:36:38;;;;;;;3.23;0.90;;;;;;;;;;5046802;28;20049;-47
2022/08/23 14:39:04;;;;;;;3.80;0.95;;;;;;;;;;5033167;28;20480;-45
2022/08/23 14:41:32;;;;;;;3.58;1.05;;;;;;;;;;5040169;28;20115;-43
2022/08/23 14:43:59;;;;;;;2.83;0.70;;;;;;;;;;5025532;28;20557;-46
2022/08/23 14:46:25;;;;;;;4.07;0.77;;;;;;;;;;5034633;28;20053;-43
2022/08/23 14:48:52;;;;;;;2.80;0.70;;;;;;;;;;5012331;28;20045;-44
2022/08/23 14:51:24;;;;;;;3.13;0.45;;;;;;;;;;5020157;28;20047;-42
2022/08/23 14:53:51;;;;;;;2.67;0.50;;;;;;;;;;5024184;28;20460;-44
2022/08/23 14:56:17;;;;;;;3.85;0.80;;;;;;;;;;5027176;28;20118;-41
2022/08/23 14:58:45;;;;;;;3.20;0.73;;;;;;;;;;5025115;28;20432;-42
2022/08/23 15:01:12;;;;;;;5.00;1.03;;;;;;;;;;5038780;28;20040;-44
2022/08/23 15:03:40;;;;;;;3.15;0.95;;;;;;;;;;5038247;28;20575;-42
2022/08/23 15:06:07;;;;;;;3.13;0.82;;;;;;;;;;5047227;28;20316;-44
2022/08/23 15:08:34;;;;;;;3.10;0.90;;;;;;;;;;5041020;28;20032;-46